This is the latest recevied weather packets stored in our database for station/object EA1GHG-11. If no packets are shown the sender has not sent any weather packets the latest 10 day(s).
| Time | Temp. | Humidity | Pressure | Rain* | Wind** | Luminosity | Snow |
|---|---|---|---|---|---|---|---|
| 1777670209 | 15.56° C | 100% | 1022.2 hPa | - | - | - | - |
| 1777668709 | 15.56° C | 100% | 1022 hPa | - | - | - | - |
| 1777667209 | 15.56° C | 100% | 1021.8 hPa | - | - | - | - |
| 1777665709 | 15.56° C | 100% | 1021.7 hPa | - | - | - | - |
| 1777664208 | 15.56° C | 100% | 1021.4 hPa | - | - | - | - |
| 1777662708 | 16.67° C | 100% | 1021.3 hPa | - | - | - | - |
| 1777661208 | 16.67° C | 100% | 1021.3 hPa | - | - | - | - |
| 1777659707 | 17.78° C | 100% | 1020.9 hPa | - | - | - | - |
| 1777659109 | 17.78° C | 100% | 1021 hPa | - | - | - | - |
| 1777657609 | 18.33° C | 100% | 1020.8 hPa | - | - | - | - |
| 1777656108 | 19.44° C | 100% | 1020.7 hPa | - | - | - | - |
| 1777654608 | 21.67° C | 100% | 1020.6 hPa | - | - | - | - |
| 1777653108 | 21.67° C | 100% | 1020.4 hPa | - | - | - | - |
| 1777651608 | 21.11° C | 98% | 1020.5 hPa | - | - | - | - |
| 1777650108 | 22.22° C | 97% | 1020.6 hPa | - | - | - | - |
| 1777648608 | 21.11° C | 98% | 1020.8 hPa | - | - | - | - |
| 1777647108 | 22.78° C | 87% | 1021 hPa | - | - | - | - |
| 1777645608 | 23.89° C | 76% | 1021.2 hPa | - | - | - | - |
| 1777644107 | 24.44° C | 73% | 1021.3 hPa | - | - | - | - |
| 1777642606 | 22.22° C | 88% | 1021.4 hPa | - | - | - | - |
| 1777641106 | 23.33° C | 82% | 1021.6 hPa | - | - | - | - |
| 1777639606 | 24.44° C | 70% | 1021.7 hPa | - | - | - | - |
| 1777638106 | 22.22° C | 91% | 1021.9 hPa | - | - | - | - |
| 1777637508 | 23.33° C | 83% | 1022 hPa | - | - | - | - |
| 1777636008 | 21.67° C | 86% | 1022 hPa | - | - | - | - |
* Rain since midnight (hover to see other rain measurements)
** Current wind speed in m/s (hover to see current wind gust speed)